sensor_id;sensor_type;location;lat;lon;timestamp;P1;durP1;ratioP1;P2;durP2;ratioP2
48375;SDS011;34178;50.904;11.560;2023-07-02T00:01:12;5.10;;;1.80;;
48375;SDS011;34178;50.904;11.560;2023-07-02T00:03:38;2.75;;;1.65;;
48375;SDS011;34178;50.904;11.560;2023-07-02T00:06:04;4.63;;;1.88;;
48375;SDS011;34178;50.904;11.560;2023-07-02T00:08:30;4.38;;;2.00;;
48375;SDS011;34178;50.904;11.560;2023-07-02T00:10:55;4.50;;;2.28;;
48375;SDS011;34178;50.904;11.560;2023-07-02T00:13:21;8.93;;;2.40;;
48375;SDS011;34178;50.904;11.560;2023-07-02T00:15:47;4.53;;;2.08;;
48375;SDS011;34178;50.904;11.560;2023-07-02T00:18:12;3.83;;;2.10;;
48375;SDS011;34178;50.904;11.560;2023-07-02T00:20:41;4.93;;;2.33;;
48375;SDS011;34178;50.904;11.560;2023-07-02T00:23:07;5.45;;;2.05;;
48375;SDS011;34178;50.904;11.560;2023-07-02T00:25:34;7.18;;;1.92;;
48375;SDS011;34178;50.904;11.560;2023-07-02T00:28:00;3.78;;;2.00;;
48375;SDS011;34178;50.904;11.560;2023-07-02T00:30:26;3.83;;;1.98;;
48375;SDS011;34178;50.904;11.560;2023-07-02T00:32:52;3.45;;;2.08;;
48375;SDS011;34178;50.904;11.560;2023-07-02T00:35:17;4.72;;;1.80;;
48375;SDS011;34178;50.904;11.560;2023-07-02T00:37:43;3.53;;;1.73;;
48375;SDS011;34178;50.904;11.560;2023-07-02T00:40:09;4.10;;;2.03;;
48375;SDS011;34178;50.904;11.560;2023-07-02T00:42:35;3.60;;;2.20;;
48375;SDS011;34178;50.904;11.560;2023-07-02T00:45:00;3.17;;;1.67;;
48375;SDS011;34178;50.904;11.560;2023-07-02T00:47:32;3.92;;;2.03;;
48375;SDS011;34178;50.904;11.560;2023-07-02T00:52:26;6.13;;;2.58;;
48375;SDS011;34178;50.904;11.560;2023-07-02T00:54:52;3.95;;;2.15;;
48375;SDS011;34178;50.904;11.560;2023-07-02T00:57:18;6.07;;;2.45;;
48375;SDS011;34178;50.904;11.560;2023-07-02T00:59:44;5.05;;;2.30;;
48375;SDS011;34178;50.904;11.560;2023-07-02T01:02:11;5.07;;;2.10;;
48375;SDS011;34178;50.904;11.560;2023-07-02T01:04:38;5.43;;;2.20;;
48375;SDS011;34178;50.904;11.560;2023-07-02T01:07:04;3.78;;;2.15;;
48375;SDS011;34178;50.904;11.560;2023-07-02T01:12:02;4.22;;;2.30;;
48375;SDS011;34178;50.904;11.560;2023-07-02T01:16:59;4.10;;;2.00;;
48375;SDS011;34178;50.904;11.560;2023-07-02T01:19:50;3.55;;;1.90;;
48375;SDS011;34178;50.904;11.560;2023-07-02T01:22:18;4.18;;;2.15;;
48375;SDS011;34178;50.904;11.560;2023-07-02T01:24:46;4.18;;;2.28;;
48375;SDS011;34178;50.904;11.560;2023-07-02T01:27:13;3.90;;;2.20;;
48375;SDS011;34178;50.904;11.560;2023-07-02T01:29:40;5.00;;;2.55;;
48375;SDS011;34178;50.904;11.560;2023-07-02T01:32:06;4.07;;;2.20;;
48375;SDS011;34178;50.904;11.560;2023-07-02T01:34:33;5.22;;;2.50;;
48375;SDS011;34178;50.904;11.560;2023-07-02T01:36:59;6.28;;;2.47;;
48375;SDS011;34178;50.904;11.560;2023-07-02T01:39:25;3.78;;;2.20;;
48375;SDS011;34178;50.904;11.560;2023-07-02T01:41:51;6.35;;;2.60;;
48375;SDS011;34178;50.904;11.560;2023-07-02T01:44:18;8.23;;;2.58;;
48375;SDS011;34178;50.904;11.560;2023-07-02T01:46:45;3.88;;;2.50;;
48375;SDS011;34178;50.904;11.560;2023-07-02T01:49:22;8.15;;;2.63;;
48375;SDS011;34178;50.904;11.560;2023-07-02T01:51:51;4.03;;;2.40;;
48375;SDS011;34178;50.904;11.560;2023-07-02T01:54:18;8.15;;;2.70;;
48375;SDS011;34178;50.904;11.560;2023-07-02T01:56:44;4.22;;;2.20;;
48375;SDS011;34178;50.904;11.560;2023-07-02T01:59:10;5.72;;;2.30;;
48375;SDS011;34178;50.904;11.560;2023-07-02T02:01:36;4.32;;;2.33;;
48375;SDS011;34178;50.904;11.560;2023-07-02T02:04:06;5.28;;;2.35;;
48375;SDS011;34178;50.904;11.560;2023-07-02T02:06:32;3.85;;;2.42;;
48375;SDS011;34178;50.904;11.560;2023-07-02T02:08:59;4.65;;;2.20;;
48375;SDS011;34178;50.904;11.560;2023-07-02T02:11:25;9.55;;;2.72;;
48375;SDS011;34178;50.904;11.560;2023-07-02T02:13:51;3.97;;;2.42;;
48375;SDS011;34178;50.904;11.560;2023-07-02T02:16:17;6.82;;;2.78;;
48375;SDS011;34178;50.904;11.560;2023-07-02T02:18:43;4.85;;;2.53;;
48375;SDS011;34178;50.904;11.560;2023-07-02T02:21:08;4.50;;;2.55;;
48375;SDS011;34178;50.904;11.560;2023-07-02T02:23:34;5.15;;;2.88;;
48375;SDS011;34178;50.904;11.560;2023-07-02T02:26:00;6.28;;;3.03;;
48375;SDS011;34178;50.904;11.560;2023-07-02T02:28:25;5.75;;;2.75;;
48375;SDS011;34178;50.904;11.560;2023-07-02T02:30:51;5.90;;;2.70;;
48375;SDS011;34178;50.904;11.560;2023-07-02T02:33:17;5.53;;;3.00;;
48375;SDS011;34178;50.904;11.560;2023-07-02T02:35:42;3.95;;;2.53;;
48375;SDS011;34178;50.904;11.560;2023-07-02T02:38:08;5.50;;;2.95;;
48375;SDS011;34178;50.904;11.560;2023-07-02T02:40:34;4.70;;;2.80;;
48375;SDS011;34178;50.904;11.560;2023-07-02T02:42:59;7.32;;;2.83;;
48375;SDS011;34178;50.904;11.560;2023-07-02T02:45:25;5.78;;;2.88;;
48375;SDS011;34178;50.904;11.560;2023-07-02T02:47:51;8.05;;;3.10;;
48375;SDS011;34178;50.904;11.560;2023-07-02T02:50:17;7.00;;;3.25;;
48375;SDS011;34178;50.904;11.560;2023-07-02T02:52:43;4.97;;;2.75;;
48375;SDS011;34178;50.904;11.560;2023-07-02T02:55:09;5.82;;;2.95;;
48375;SDS011;34178;50.904;11.560;2023-07-02T02:57:35;4.72;;;3.08;;
48375;SDS011;34178;50.904;11.560;2023-07-02T03:00:01;4.95;;;2.50;;
48375;SDS011;34178;50.904;11.560;2023-07-02T03:02:27;8.10;;;3.17;;
48375;SDS011;34178;50.904;11.560;2023-07-02T03:04:53;6.45;;;2.85;;
48375;SDS011;34178;50.904;11.560;2023-07-02T03:07:19;7.68;;;3.45;;
48375;SDS011;34178;50.904;11.560;2023-07-02T03:09:45;9.15;;;3.30;;
48375;SDS011;34178;50.904;11.560;2023-07-02T03:12:10;6.80;;;3.50;;
48375;SDS011;34178;50.904;11.560;2023-07-02T03:14:36;6.93;;;3.03;;
48375;SDS011;34178;50.904;11.560;2023-07-02T03:17:02;5.53;;;3.30;;
48375;SDS011;34178;50.904;11.560;2023-07-02T03:19:28;6.28;;;3.15;;
48375;SDS011;34178;50.904;11.560;2023-07-02T03:21:54;5.93;;;2.95;;
48375;SDS011;34178;50.904;11.560;2023-07-02T03:24:19;5.68;;;2.90;;
48375;SDS011;34178;50.904;11.560;2023-07-02T03:26:45;5.22;;;3.13;;
48375;SDS011;34178;50.904;11.560;2023-07-02T03:29:11;6.25;;;3.28;;
48375;SDS011;34178;50.904;11.560;2023-07-02T03:31:37;6.95;;;3.40;;
48375;SDS011;34178;50.904;11.560;2023-07-02T03:34:03;5.43;;;3.10;;
48375;SDS011;34178;50.904;11.560;2023-07-02T03:36:32;6.13;;;3.17;;
48375;SDS011;34178;50.904;11.560;2023-07-02T03:38:58;7.40;;;3.97;;
48375;SDS011;34178;50.904;11.560;2023-07-02T03:41:24;7.65;;;3.88;;
48375;SDS011;34178;50.904;11.560;2023-07-02T03:43:50;6.05;;;3.30;;
48375;SDS011;34178;50.904;11.560;2023-07-02T03:46:15;6.57;;;3.33;;
48375;SDS011;34178;50.904;11.560;2023-07-02T03:48:41;6.72;;;3.30;;
48375;SDS011;34178;50.904;11.560;2023-07-02T03:51:07;4.88;;;3.17;;
48375;SDS011;34178;50.904;11.560;2023-07-02T03:53:33;9.20;;;3.47;;
48375;SDS011;34178;50.904;11.560;2023-07-02T03:55:58;8.63;;;4.10;;
48375;SDS011;34178;50.904;11.560;2023-07-02T03:58:24;7.65;;;3.88;;
48375;SDS011;34178;50.904;11.560;2023-07-02T04:00:50;6.63;;;4.10;;
48375;SDS011;34178;50.904;11.560;2023-07-02T04:03:16;8.40;;;4.45;;
48375;SDS011;34178;50.904;11.560;2023-07-02T04:05:42;7.30;;;3.70;;
48375;SDS011;34178;50.904;11.560;2023-07-02T04:08:08;5.50;;;3.70;;
48375;SDS011;34178;50.904;11.560;2023-07-02T04:10:34;8.30;;;4.13;;
48375;SDS011;34178;50.904;11.560;2023-07-02T04:13:00;6.97;;;3.80;;
48375;SDS011;34178;50.904;11.560;2023-07-02T04:15:26;6.38;;;3.92;;
48375;SDS011;34178;50.904;11.560;2023-07-02T04:17:51;5.25;;;3.53;;
48375;SDS011;34178;50.904;11.560;2023-07-02T04:20:18;6.95;;;3.78;;
48375;SDS011;34178;50.904;11.560;2023-07-02T04:22:45;6.72;;;3.50;;
48375;SDS011;34178;50.904;11.560;2023-07-02T04:25:11;8.32;;;4.25;;
48375;SDS011;34178;50.904;11.560;2023-07-02T04:27:40;5.15;;;3.47;;
48375;SDS011;34178;50.904;11.560;2023-07-02T04:30:07;5.85;;;3.72;;
48375;SDS011;34178;50.904;11.560;2023-07-02T04:32:34;5.63;;;3.72;;
48375;SDS011;34178;50.904;11.560;2023-07-02T04:35:01;7.28;;;3.63;;
48375;SDS011;34178;50.904;11.560;2023-07-02T04:37:27;8.75;;;4.10;;
48375;SDS011;34178;50.904;11.560;2023-07-02T04:39:53;9.05;;;3.80;;
48375;SDS011;34178;50.904;11.560;2023-07-02T04:42:19;6.05;;;3.83;;
48375;SDS011;34178;50.904;11.560;2023-07-02T04:44:45;7.88;;;4.30;;
48375;SDS011;34178;50.904;11.560;2023-07-02T04:47:11;5.13;;;3.63;;
48375;SDS011;34178;50.904;11.560;2023-07-02T04:49:37;6.85;;;3.88;;
48375;SDS011;34178;50.904;11.560;2023-07-02T04:52:03;7.18;;;3.92;;
48375;SDS011;34178;50.904;11.560;2023-07-02T04:54:29;6.07;;;3.35;;
48375;SDS011;34178;50.904;11.560;2023-07-02T04:56:55;6.97;;;3.70;;
48375;SDS011;34178;50.904;11.560;2023-07-02T04:59:21;6.18;;;3.88;;
48375;SDS011;34178;50.904;11.560;2023-07-02T05:01:47;5.30;;;3.38;;
48375;SDS011;34178;50.904;11.560;2023-07-02T05:04:13;5.28;;;3.10;;
48375;SDS011;34178;50.904;11.560;2023-07-02T05:06:38;6.15;;;3.67;;
48375;SDS011;34178;50.904;11.560;2023-07-02T05:09:04;6.35;;;3.75;;
48375;SDS011;34178;50.904;11.560;2023-07-02T05:11:30;7.68;;;3.85;;
48375;SDS011;34178;50.904;11.560;2023-07-02T05:13:56;6.10;;;3.10;;
48375;SDS011;34178;50.904;11.560;2023-07-02T05:16:21;8.93;;;3.70;;
48375;SDS011;34178;50.904;11.560;2023-07-02T05:18:47;6.88;;;3.78;;
48375;SDS011;34178;50.904;11.560;2023-07-02T05:21:16;6.25;;;3.25;;
48375;SDS011;34178;50.904;11.560;2023-07-02T09:59:32;6.18;;;2.80;;
48375;SDS011;34178;50.904;11.560;2023-07-02T10:01:59;5.75;;;2.22;;
48375;SDS011;34178;50.904;11.560;2023-07-02T10:04:24;5.22;;;2.53;;
48375;SDS011;34178;50.904;11.560;2023-07-02T10:06:51;6.15;;;2.55;;
48375;SDS011;34178;50.904;11.560;2023-07-02T13:28:39;11.82;;;7.03;;
48375;SDS011;34178;50.904;11.560;2023-07-02T13:31:06;13.65;;;7.20;;
48375;SDS011;34178;50.904;11.560;2023-07-02T13:33:33;11.43;;;6.80;;
48375;SDS011;34178;50.904;11.560;2023-07-02T13:35:58;10.60;;;6.28;;
48375;SDS011;34178;50.904;11.560;2023-07-02T13:38:24;12.98;;;6.72;;
48375;SDS011;34178;50.904;11.560;2023-07-02T13:40:50;10.80;;;6.93;;
48375;SDS011;34178;50.904;11.560;2023-07-02T13:43:15;12.68;;;6.28;;
48375;SDS011;34178;50.904;11.560;2023-07-02T13:45:41;12.07;;;7.13;;
48375;SDS011;34178;50.904;11.560;2023-07-02T13:48:07;15.55;;;6.20;;
48375;SDS011;34178;50.904;11.560;2023-07-02T13:50:32;15.27;;;7.45;;
48375;SDS011;34178;50.904;11.560;2023-07-02T13:52:58;11.20;;;6.45;;
48375;SDS011;34178;50.904;11.560;2023-07-02T13:55:24;13.18;;;7.00;;
48375;SDS011;34178;50.904;11.560;2023-07-02T13:57:53;11.25;;;6.80;;
48375;SDS011;34178;50.904;11.560;2023-07-02T14:00:20;12.35;;;7.05;;
48375;SDS011;34178;50.904;11.560;2023-07-02T14:02:46;10.75;;;6.40;;
48375;SDS011;34178;50.904;11.560;2023-07-02T14:05:12;11.43;;;7.03;;
48375;SDS011;34178;50.904;11.560;2023-07-02T14:07:37;12.35;;;7.03;;
48375;SDS011;34178;50.904;11.560;2023-07-02T14:10:03;11.95;;;7.15;;
48375;SDS011;34178;50.904;11.560;2023-07-02T14:12:29;11.95;;;6.55;;
48375;SDS011;34178;50.904;11.560;2023-07-02T14:14:55;13.45;;;7.32;;
48375;SDS011;34178;50.904;11.560;2023-07-02T14:17:20;12.88;;;6.88;;
48375;SDS011;34178;50.904;11.560;2023-07-02T14:19:46;13.30;;;7.60;;
48375;SDS011;34178;50.904;11.560;2023-07-02T14:22:12;14.13;;;8.43;;
48375;SDS011;34178;50.904;11.560;2023-07-02T14:24:38;12.75;;;8.25;;
48375;SDS011;34178;50.904;11.560;2023-07-02T14:27:03;14.45;;;8.38;;
48375;SDS011;34178;50.904;11.560;2023-07-02T14:29:29;13.75;;;9.07;;
48375;SDS011;34178;50.904;11.560;2023-07-02T14:31:55;13.77;;;8.70;;
48375;SDS011;34178;50.904;11.560;2023-07-02T14:34:21;15.15;;;8.43;;
48375;SDS011;34178;50.904;11.560;2023-07-02T14:36:46;18.65;;;8.98;;
48375;SDS011;34178;50.904;11.560;2023-07-02T14:39:12;16.08;;;8.88;;
48375;SDS011;34178;50.904;11.560;2023-07-02T14:41:38;16.08;;;8.93;;
48375;SDS011;34178;50.904;11.560;2023-07-02T14:44:03;15.27;;;9.15;;
48375;SDS011;34178;50.904;11.560;2023-07-02T14:46:30;14.18;;;8.85;;
48375;SDS011;34178;50.904;11.560;2023-07-02T14:48:56;15.52;;;9.20;;
48375;SDS011;34178;50.904;11.560;2023-07-02T14:51:22;14.30;;;9.00;;
48375;SDS011;34178;50.904;11.560;2023-07-02T14:53:48;13.02;;;8.30;;
48375;SDS011;34178;50.904;11.560;2023-07-02T14:56:14;16.60;;;9.30;;
48375;SDS011;34178;50.904;11.560;2023-07-02T14:58:40;14.10;;;8.32;;
48375;SDS011;34178;50.904;11.560;2023-07-02T15:01:06;14.43;;;8.88;;
48375;SDS011;34178;50.904;11.560;2023-07-02T15:03:31;19.42;;;8.85;;
48375;SDS011;34178;50.904;11.560;2023-07-02T15:06:07;15.65;;;8.73;;
48375;SDS011;34178;50.904;11.560;2023-07-02T15:08:34;14.02;;;8.20;;
48375;SDS011;34178;50.904;11.560;2023-07-02T15:11:00;17.40;;;8.95;;
48375;SDS011;34178;50.904;11.560;2023-07-02T15:13:26;13.90;;;8.82;;
48375;SDS011;34178;50.904;11.560;2023-07-02T15:15:52;13.25;;;8.70;;
48375;SDS011;34178;50.904;11.560;2023-07-02T15:18:17;16.77;;;9.88;;
48375;SDS011;34178;50.904;11.560;2023-07-02T15:20:45;14.18;;;8.88;;
48375;SDS011;34178;50.904;11.560;2023-07-02T15:23:11;14.32;;;9.20;;
48375;SDS011;34178;50.904;11.560;2023-07-02T15:25:38;16.75;;;8.48;;
48375;SDS011;34178;50.904;11.560;2023-07-02T15:28:04;16.35;;;8.45;;
48375;SDS011;34178;50.904;11.560;2023-07-02T15:30:29;14.48;;;8.65;;
48375;SDS011;34178;50.904;11.560;2023-07-02T15:32:55;15.88;;;9.25;;
48375;SDS011;34178;50.904;11.560;2023-07-02T15:35:21;13.63;;;8.70;;
48375;SDS011;34178;50.904;11.560;2023-07-02T15:37:48;16.20;;;9.07;;
48375;SDS011;34178;50.904;11.560;2023-07-02T15:40:13;15.00;;;9.32;;
48375;SDS011;34178;50.904;11.560;2023-07-02T15:42:40;15.85;;;8.88;;
48375;SDS011;34178;50.904;11.560;2023-07-02T15:45:05;15.65;;;8.85;;
48375;SDS011;34178;50.904;11.560;2023-07-02T15:47:32;16.55;;;9.32;;
48375;SDS011;34178;50.904;11.560;2023-07-02T15:49:58;15.00;;;9.40;;
48375;SDS011;34178;50.904;11.560;2023-07-02T15:52:24;15.02;;;9.20;;
48375;SDS011;34178;50.904;11.560;2023-07-02T15:54:51;14.02;;;9.25;;
48375;SDS011;34178;50.904;11.560;2023-07-02T15:57:16;18.45;;;8.77;;
48375;SDS011;34178;50.904;11.560;2023-07-02T15:59:42;16.25;;;9.23;;
48375;SDS011;34178;50.904;11.560;2023-07-02T16:02:08;15.73;;;9.25;;
48375;SDS011;34178;50.904;11.560;2023-07-02T16:04:35;16.70;;;9.15;;
48375;SDS011;34178;50.904;11.560;2023-07-02T16:07:01;16.52;;;9.75;;
48375;SDS011;34178;50.904;11.560;2023-07-02T16:09:26;18.95;;;9.25;;
48375;SDS011;34178;50.904;11.560;2023-07-02T16:11:52;15.85;;;9.45;;
48375;SDS011;34178;50.904;11.560;2023-07-02T16:14:18;16.45;;;9.18;;
48375;SDS011;34178;50.904;11.560;2023-07-02T16:16:47;14.88;;;9.00;;
48375;SDS011;34178;50.904;11.560;2023-07-02T16:19:19;13.30;;;9.18;;
48375;SDS011;34178;50.904;11.560;2023-07-02T16:21:45;17.30;;;9.60;;
48375;SDS011;34178;50.904;11.560;2023-07-02T16:24:23;14.52;;;8.85;;
48375;SDS011;34178;50.904;11.560;2023-07-02T16:26:51;14.38;;;8.90;;
48375;SDS011;34178;50.904;11.560;2023-07-02T16:29:17;14.85;;;9.25;;
48375;SDS011;34178;50.904;11.560;2023-07-02T16:31:46;17.85;;;10.10;;
48375;SDS011;34178;50.904;11.560;2023-07-02T16:34:15;14.23;;;9.20;;
48375;SDS011;34178;50.904;11.560;2023-07-02T16:36:41;14.60;;;8.52;;
48375;SDS011;34178;50.904;11.560;2023-07-02T16:39:08;15.65;;;8.65;;
48375;SDS011;34178;50.904;11.560;2023-07-02T16:41:34;15.35;;;9.60;;
48375;SDS011;34178;50.904;11.560;2023-07-02T16:44:03;16.45;;;9.73;;
48375;SDS011;34178;50.904;11.560;2023-07-02T16:46:31;17.23;;;11.40;;
48375;SDS011;34178;50.904;11.560;2023-07-02T16:48:57;18.60;;;9.38;;
48375;SDS011;34178;50.904;11.560;2023-07-02T16:51:23;17.45;;;10.05;;
48375;SDS011;34178;50.904;11.560;2023-07-02T16:53:49;14.95;;;9.57;;
48375;SDS011;34178;50.904;11.560;2023-07-02T16:56:14;15.93;;;10.65;;
48375;SDS011;34178;50.904;11.560;2023-07-02T16:58:40;15.68;;;9.50;;
48375;SDS011;34178;50.904;11.560;2023-07-02T17:01:10;14.98;;;9.30;;
48375;SDS011;34178;50.904;11.560;2023-07-02T17:03:36;15.75;;;10.25;;
48375;SDS011;34178;50.904;11.560;2023-07-02T17:06:03;18.42;;;9.82;;
48375;SDS011;34178;50.904;11.560;2023-07-02T17:08:32;15.90;;;9.10;;
48375;SDS011;34178;50.904;11.560;2023-07-02T17:11:03;15.52;;;9.82;;
48375;SDS011;34178;50.904;11.560;2023-07-02T17:13:30;14.50;;;9.35;;
48375;SDS011;34178;50.904;11.560;2023-07-02T17:15:56;16.00;;;9.48;;
48375;SDS011;34178;50.904;11.560;2023-07-02T17:18:21;16.98;;;9.57;;
48375;SDS011;34178;50.904;11.560;2023-07-02T17:20:53;13.05;;;8.73;;
48375;SDS011;34178;50.904;11.560;2023-07-02T17:23:20;15.90;;;9.27;;
48375;SDS011;34178;50.904;11.560;2023-07-02T17:25:47;17.58;;;9.32;;
48375;SDS011;34178;50.904;11.560;2023-07-02T17:28:12;17.83;;;9.55;;
48375;SDS011;34178;50.904;11.560;2023-07-02T17:30:38;17.98;;;8.85;;
48375;SDS011;34178;50.904;11.560;2023-07-02T17:33:05;15.65;;;9.60;;
48375;SDS011;34178;50.904;11.560;2023-07-02T17:35:41;15.95;;;9.30;;
48375;SDS011;34178;50.904;11.560;2023-07-02T17:38:07;14.43;;;8.98;;
48375;SDS011;34178;50.904;11.560;2023-07-02T17:40:38;15.90;;;9.80;;
48375;SDS011;34178;50.904;11.560;2023-07-02T17:43:04;16.67;;;9.05;;
48375;SDS011;34178;50.904;11.560;2023-07-02T17:45:30;16.08;;;8.85;;
48375;SDS011;34178;50.904;11.560;2023-07-02T17:47:56;16.42;;;8.93;;
48375;SDS011;34178;50.904;11.560;2023-07-02T17:50:21;12.80;;;8.35;;
48375;SDS011;34178;50.904;11.560;2023-07-02T17:52:47;14.00;;;8.88;;
48375;SDS011;34178;50.904;11.560;2023-07-02T17:55:13;16.25;;;8.95;;
48375;SDS011;34178;50.904;11.560;2023-07-02T17:57:38;15.57;;;8.95;;
48375;SDS011;34178;50.904;11.560;2023-07-02T18:00:05;18.52;;;9.50;;
48375;SDS011;34178;50.904;11.560;2023-07-02T18:02:32;16.30;;;8.57;;
48375;SDS011;34178;50.904;11.560;2023-07-02T18:04:58;14.15;;;8.23;;
48375;SDS011;34178;50.904;11.560;2023-07-02T18:07:24;17.60;;;9.45;;
48375;SDS011;34178;50.904;11.560;2023-07-02T18:09:50;16.23;;;9.23;;
48375;SDS011;34178;50.904;11.560;2023-07-02T18:12:18;17.35;;;9.35;;
48375;SDS011;34178;50.904;11.560;2023-07-02T18:14:47;16.42;;;9.32;;
48375;SDS011;34178;50.904;11.560;2023-07-02T18:17:14;16.55;;;9.32;;
48375;SDS011;34178;50.904;11.560;2023-07-02T18:19:40;16.33;;;9.52;;
48375;SDS011;34178;50.904;11.560;2023-07-02T18:22:06;16.08;;;8.82;;
48375;SDS011;34178;50.904;11.560;2023-07-02T18:24:34;18.35;;;9.35;;
48375;SDS011;34178;50.904;11.560;2023-07-02T18:27:04;17.30;;;8.63;;
48375;SDS011;34178;50.904;11.560;2023-07-02T18:29:32;16.08;;;9.20;;
48375;SDS011;34178;50.904;11.560;2023-07-02T18:32:02;17.48;;;9.00;;
48375;SDS011;34178;50.904;11.560;2023-07-02T18:34:30;17.05;;;9.07;;
48375;SDS011;34178;50.904;11.560;2023-07-02T18:36:58;16.60;;;9.63;;
48375;SDS011;34178;50.904;11.560;2023-07-02T18:39:26;16.88;;;9.70;;
48375;SDS011;34178;50.904;11.560;2023-07-02T18:41:57;17.90;;;9.57;;
48375;SDS011;34178;50.904;11.560;2023-07-02T18:44:24;15.75;;;9.25;;
48375;SDS011;34178;50.904;11.560;2023-07-02T18:46:52;18.20;;;9.43;;
48375;SDS011;34178;50.904;11.560;2023-07-02T18:49:20;15.38;;;9.07;;
48375;SDS011;34178;50.904;11.560;2023-07-02T18:51:46;16.25;;;9.80;;
48375;SDS011;34178;50.904;11.560;2023-07-02T18:54:12;14.27;;;9.30;;
48375;SDS011;34178;50.904;11.560;2023-07-02T18:56:38;16.10;;;9.02;;
48375;SDS011;34178;50.904;11.560;2023-07-02T18:59:03;16.52;;;8.75;;
48375;SDS011;34178;50.904;11.560;2023-07-02T19:01:29;15.25;;;9.38;;
48375;SDS011;34178;50.904;11.560;2023-07-02T19:03:55;18.40;;;9.18;;
48375;SDS011;34178;50.904;11.560;2023-07-02T19:06:22;16.10;;;9.27;;
48375;SDS011;34178;50.904;11.560;2023-07-02T19:08:48;15.70;;;9.15;;
48375;SDS011;34178;50.904;11.560;2023-07-02T19:11:14;15.70;;;9.32;;
48375;SDS011;34178;50.904;11.560;2023-07-02T19:13:40;17.05;;;9.02;;
48375;SDS011;34178;50.904;11.560;2023-07-02T19:16:05;15.18;;;9.10;;
48375;SDS011;34178;50.904;11.560;2023-07-02T19:18:31;15.20;;;8.40;;
48375;SDS011;34178;50.904;11.560;2023-07-02T19:20:57;16.05;;;8.95;;
48375;SDS011;34178;50.904;11.560;2023-07-02T19:23:24;20.17;;;9.50;;
48375;SDS011;34178;50.904;11.560;2023-07-02T19:25:52;15.63;;;8.43;;
48375;SDS011;34178;50.904;11.560;2023-07-02T19:28:18;16.48;;;8.55;;
48375;SDS011;34178;50.904;11.560;2023-07-02T19:30:44;19.98;;;9.48;;
48375;SDS011;34178;50.904;11.560;2023-07-02T19:33:10;19.70;;;9.40;;
48375;SDS011;34178;50.904;11.560;2023-07-02T19:35:37;16.55;;;9.40;;
48375;SDS011;34178;50.904;11.560;2023-07-02T19:38:04;20.13;;;9.93;;
48375;SDS011;34178;50.904;11.560;2023-07-02T19:40:32;17.73;;;9.70;;
48375;SDS011;34178;50.904;11.560;2023-07-02T19:42:58;17.92;;;9.23;;
48375;SDS011;34178;50.904;11.560;2023-07-02T19:45:24;16.73;;;9.05;;
48375;SDS011;34178;50.904;11.560;2023-07-02T19:47:50;20.95;;;9.80;;
48375;SDS011;34178;50.904;11.560;2023-07-02T22:33:17;18.60;;;10.55;;
48375;SDS011;34178;50.904;11.560;2023-07-02T22:35:45;20.60;;;10.48;;
48375;SDS011;34178;50.904;11.560;2023-07-02T22:38:10;20.23;;;10.35;;
48375;SDS011;34178;50.904;11.560;2023-07-02T22:40:36;20.85;;;11.23;;
48375;SDS011;34178;50.904;11.560;2023-07-02T22:43:02;18.95;;;11.25;;
48375;SDS011;34178;50.904;11.560;2023-07-02T22:45:28;19.25;;;11.02;;
48375;SDS011;34178;50.904;11.560;2023-07-02T22:47:54;25.00;;;11.13;;
48375;SDS011;34178;50.904;11.560;2023-07-02T22:50:20;21.42;;;11.23;;
48375;SDS011;34178;50.904;11.560;2023-07-02T22:52:46;21.33;;;10.15;;
48375;SDS011;34178;50.904;11.560;2023-07-02T22:55:14;18.95;;;10.77;;
48375;SDS011;34178;50.904;11.560;2023-07-02T22:57:40;19.58;;;11.52;;
48375;SDS011;34178;50.904;11.560;2023-07-02T23:00:09;23.13;;;10.52;;
48375;SDS011;34178;50.904;11.560;2023-07-02T23:02:42;21.23;;;11.40;;
48375;SDS011;34178;50.904;11.560;2023-07-02T23:05:14;21.60;;;11.43;;
48375;SDS011;34178;50.904;11.560;2023-07-02T23:07:41;20.77;;;10.82;;
48375;SDS011;34178;50.904;11.560;2023-07-02T23:10:10;21.73;;;11.55;;
48375;SDS011;34178;50.904;11.560;2023-07-02T23:12:41;21.83;;;10.70;;
48375;SDS011;34178;50.904;11.560;2023-07-02T23:15:08;20.48;;;11.68;;
48375;SDS011;34178;50.904;11.560;2023-07-02T23:17:39;20.40;;;11.20;;
48375;SDS011;34178;50.904;11.560;2023-07-02T23:20:06;17.88;;;10.32;;
48375;SDS011;34178;50.904;11.560;2023-07-02T23:22:32;20.63;;;10.77;;
48375;SDS011;34178;50.904;11.560;2023-07-02T23:24:57;18.25;;;10.77;;
48375;SDS011;34178;50.904;11.560;2023-07-02T23:27:23;20.50;;;11.07;;
48375;SDS011;34178;50.904;11.560;2023-07-02T23:29:49;19.98;;;10.48;;
48375;SDS011;34178;50.904;11.560;2023-07-02T23:32:20;17.90;;;10.65;;
48375;SDS011;34178;50.904;11.560;2023-07-02T23:34:46;20.25;;;10.90;;
48375;SDS011;34178;50.904;11.560;2023-07-02T23:37:11;22.90;;;11.07;;
48375;SDS011;34178;50.904;11.560;2023-07-02T23:39:39;17.95;;;10.57;;
48375;SDS011;34178;50.904;11.560;2023-07-02T23:42:05;20.08;;;11.52;;
48375;SDS011;34178;50.904;11.560;2023-07-02T23:44:31;20.25;;;10.38;;
48375;SDS011;34178;50.904;11.560;2023-07-02T23:46:57;18.88;;;11.35;;
48375;SDS011;34178;50.904;11.560;2023-07-02T23:49:23;21.17;;;11.32;;
48375;SDS011;34178;50.904;11.560;2023-07-02T23:51:49;20.08;;;11.02;;
48375;SDS011;34178;50.904;11.560;2023-07-02T23:54:14;21.67;;;11.75;;
48375;SDS011;34178;50.904;11.560;2023-07-02T23:56:40;19.38;;;10.70;;
48375;SDS011;34178;50.904;11.560;2023-07-02T23:59:06;20.17;;;11.05;;
